Time;durP1;ratioP1;P1;durP2;ratioP2;P2;SDS_P1;SDS_P2;PMS_P1;PMS_P2;Temp;Humidity;BMP_temperature;BMP_pressure;BME280_temperature;BME280_humidity;BME280_pressure;Samples;Min_cycle;Max_cycle;Signal;HPM_P1;HPM_P2
2023/09/26 00:00:01;;;;;;;3.88;3.00;;;;;;;17.43;67.41;93870.88;526475;28;931;-41
2023/09/26 00:00:23;;;;;;;4.57;3.10;;;;;;;17.43;67.42;93876.47;526524;28;907;-41
2023/09/26 00:00:38;;;;;;;4.60;2.92;;;;;;;17.41;67.52;93870.75;526470;28;879;-41
2023/09/26 00:00:54;;;;;;;4.30;2.90;;;;;;;17.40;67.31;93878.38;526509;28;872;-41
2023/09/26 00:01:09;;;;;;;5.40;3.20;;;;;;;17.40;67.48;93872.03;526509;28;968;-41
2023/09/26 00:01:29;;;;;;;5.30;3.33;;;;;;;17.40;67.33;93874.84;526293;28;938;-41
2023/09/26 00:01:44;;;;;;;3.95;3.22;;;;;;;17.39;67.51;93868.50;526294;28;1059;-41
2023/09/26 00:02:00;;;;;;;4.22;3.05;;;;;;;17.39;67.47;93867.78;526255;28;900;-41
2023/09/26 00:02:16;;;;;;;5.43;3.17;;;;;;;17.38;67.31;93875.44;526305;28;873;-41
2023/09/26 00:02:31;;;;;;;4.53;2.92;;;;;;;17.37;67.29;93873.19;526227;28;1530;-41
2023/09/26 00:02:48;;;;;;;3.00;2.63;;;;;;;17.35;67.48;93870.25;526362;28;912;-41
2023/09/26 00:03:06;;;;;;;4.65;2.92;;;;;;;17.36;67.34;93872.50;526281;28;920;-41
2023/09/26 00:03:21;;;;;;;7.15;3.22;;;;;;;17.37;67.43;93867.63;526340;28;1400;-41
2023/09/26 00:03:39;;;;;;;7.40;3.20;;;;;;;17.36;67.44;93863.38;526530;28;789;-41
2023/09/26 00:03:55;;;;;;;7.30;3.08;;;;;;;17.36;67.49;93866.91;526328;28;794;-41
2023/09/26 00:04:10;;;;;;;5.80;3.17;;;;;;;17.36;67.52;93866.16;526306;28;1066;-41
2023/09/26 00:04:26;;;;;;;5.47;3.30;;;;;;;17.35;67.32;93864.69;526318;28;830;-41
2023/09/26 00:04:41;;;;;;;5.30;3.03;;;;;;;17.35;67.58;93867.47;526246;28;840;-41
2023/09/26 00:04:58;;;;;;;4.28;3.05;;;;;;;17.35;67.56;93873.06;526402;28;824;-41
2023/09/26 00:05:13;;;;;;;3.30;3.00;;;;;;;17.35;67.34;93870.25;526250;28;885;-41
2023/09/26 00:05:29;;;;;;;3.80;2.90;;;;;;;17.33;67.43;93868.06;526253;28;1006;-41
2023/09/26 00:05:44;;;;;;;4.20;3.03;;;;;;;17.34;67.45;93869.53;526410;28;838;-41
2023/09/26 00:05:59;;;;;;;3.23;2.90;;;;;;;17.33;67.45;93868.06;526496;28;789;-41
2023/09/26 00:06:20;;;;;;;5.57;2.83;;;;;;;17.34;67.18;93877.19;526435;28;1047;-41
2023/09/26 00:06:35;;;;;;;6.55;3.05;;;;;;;17.35;67.18;93867.47;526304;28;908;-41
2023/09/26 00:06:50;;;;;;;4.30;2.80;;;;;;;17.34;67.38;93871.59;526265;28;817;-41
2023/09/26 00:07:06;;;;;;;3.58;2.88;;;;;;;17.35;67.32;93871.00;526285;28;959;-41
2023/09/26 00:07:22;;;;;;;3.33;3.03;;;;;;;17.35;67.24;93873.78;526267;28;861;-41
2023/09/26 00:07:37;;;;;;;3.22;2.92;;;;;;;17.35;67.45;93871.00;526239;28;849;-41
2023/09/26 00:07:54;;;;;;;3.03;2.73;;;;;;;17.35;67.40;93867.47;526282;28;848;-41
2023/09/26 00:08:10;;;;;;;3.22;2.85;;;;;;;17.35;67.25;93868.22;526197;28;873;-41
2023/09/26 00:08:25;;;;;;;3.85;3.22;;;;;;;17.33;67.13;93873.63;526401;28;853;-41
2023/09/26 00:08:41;;;;;;;4.03;3.27;;;;;;;17.35;66.94;93876.59;526406;28;860;-41
2023/09/26 00:08:56;;;;;;;3.97;3.17;;;;;;;17.34;67.00;93869.53;526451;28;1973;-41
2023/09/26 00:09:12;;;;;;;4.28;3.10;;;;;;;17.35;66.78;93873.06;526412;28;965;-41
2023/09/26 00:09:27;;;;;;;4.40;2.93;;;;;;;17.34;66.77;93875.13;526433;28;904;-41
2023/09/26 00:09:43;;;;;;;3.33;2.67;;;;;;;17.35;66.66;93875.84;526414;28;939;-41
2023/09/26 00:10:00;;;;;;;3.30;3.00;;;;;;;17.34;66.54;93877.19;526448;28;887;-41
2023/09/26 00:10:16;;;;;;;3.90;3.20;;;;;;;17.33;66.49;93876.44;526409;28;920;-41
2023/09/26 00:10:32;;;;;;;4.10;3.20;;;;;;;17.33;66.57;93872.91;526464;28;844;-41
2023/09/26 00:10:47;;;;;;;6.17;3.30;;;;;;;17.32;66.31;93872.19;526484;28;789;-41
2023/09/26 00:11:02;;;;;;;5.53;2.95;;;;;;;17.32;66.30;93868.66;526456;28;1118;-41
2023/09/26 00:11:18;;;;;;;3.50;2.70;;;;;;;17.31;66.15;93875.53;526423;28;892;-41
2023/09/26 00:11:34;;;;;;;4.15;2.90;;;;;;;17.30;66.32;93872.00;526400;28;965;-41
2023/09/26 00:11:49;;;;;;;3.93;3.20;;;;;;;17.30;66.24;93877.59;526439;28;824;-41
2023/09/26 00:12:05;;;;;;;3.33;3.03;;;;;;;17.29;66.34;93876.13;526460;28;954;-41
2023/09/26 00:12:20;;;;;;;5.87;3.13;;;;;;;17.27;66.13;93881.56;526386;28;896;-41
2023/09/26 00:12:36;;;;;;;7.10;3.17;;;;;;;17.29;66.24;93878.19;526486;28;813;-41
2023/09/26 00:12:51;;;;;;;4.50;3.00;;;;;;;17.27;66.33;93870.41;526396;28;786;-41
2023/09/26 00:13:07;;;;;;;7.23;3.30;;;;;;;17.24;66.28;93879.19;526455;28;927;-41
2023/09/26 00:13:22;;;;;;;7.20;3.33;;;;;;;17.27;66.50;93880.81;526507;28;923;-41
2023/09/26 00:13:38;;;;;;;3.65;3.00;;;;;;;17.27;66.33;93878.78;526479;28;793;-41
2023/09/26 00:13:53;;;;;;;3.83;3.07;;;;;;;17.27;66.27;93881.56;526458;28;900;-41
2023/09/26 00:14:08;;;;;;;3.93;3.40;;;;;;;17.27;66.02;93883.59;526484;28;913;-41
2023/09/26 00:14:24;;;;;;;3.53;3.22;;;;;;;17.26;66.28;93880.06;526506;28;824;-41
2023/09/26 00:14:39;;;;;;;3.37;2.90;;;;;;;17.26;66.13;93880.06;526440;28;1096;-41
2023/09/26 00:14:55;;;;;;;4.80;3.00;;;;;;;17.26;66.11;93882.88;526469;28;923;-41
2023/09/26 00:15:11;;;;;;;4.57;3.07;;;;;;;17.21;66.07;93877.56;526401;28;825;-41
2023/09/26 00:15:26;;;;;;;4.95;3.15;;;;;;;17.25;66.19;93881.41;526476;28;908;-41
2023/09/26 00:15:42;;;;;;;4.73;2.97;;;;;;;17.12;66.06;93859.47;526465;28;853;-41
2023/09/26 00:15:57;;;;;;;3.28;2.80;;;;;;;17.24;66.18;93881.97;526465;28;876;-41
2023/09/26 00:16:12;;;;;;;3.27;2.83;;;;;;;17.24;66.25;93876.38;526426;28;865;-41
2023/09/26 00:16:28;;;;;;;6.00;3.50;;;;;;;17.24;66.00;93873.59;526194;28;2455;-41
2023/09/26 00:16:43;;;;;;;7.25;3.63;;;;;;;17.23;66.23;93877.72;526286;28;884;-41
2023/09/26 00:16:59;;;;;;;5.53;3.30;;;;;;;17.23;66.14;93867.31;526255;28;856;-41
2023/09/26 00:17:17;;;;;;;6.43;3.20;;;;;;;17.20;66.09;93871.25;526292;28;818;-41
2023/09/26 00:17:33;;;;;;;6.65;3.30;;;;;;;17.23;65.92;93877.72;526234;28;1214;-41
2023/09/26 00:17:50;;;;;;;4.70;2.85;;;;;;;17.21;65.87;93867.16;526281;28;903;-41
2023/09/26 00:18:06;;;;;;;4.20;2.60;;;;;;;17.19;65.87;93872.59;524128;28;2116;-41
2023/09/26 00:18:21;;;;;;;5.18;2.83;;;;;;;17.22;66.06;93871.41;525086;28;900;-41
2023/09/26 00:18:40;;;;;;;4.90;2.83;;;;;;;17.08;65.94;93852.84;526328;28;939;-41
2023/09/26 00:18:55;;;;;;;3.35;2.83;;;;;;;17.21;65.98;93875.53;526228;28;869;-41
2023/09/26 00:19:10;;;;;;;4.32;3.17;;;;;;;17.21;65.99;93872.00;526213;28;1008;-41
2023/09/26 00:19:27;;;;;;;4.50;3.30;;;;;;;17.20;66.06;93871.25;526285;28;959;-41
2023/09/26 00:19:43;;;;;;;4.05;3.13;;;;;;;17.19;66.00;93869.78;526229;28;896;-41
2023/09/26 00:19:58;;;;;;;3.37;2.97;;;;;;;17.18;65.99;93867.56;526129;28;959;-41
2023/09/26 00:20:30;;;;;;;3.58;3.03;;;;;;;17.17;65.97;93871.69;526471;28;849;-41
2023/09/26 00:20:46;;;;;;;3.95;2.97;;;;;;;17.12;65.96;93864.31;526406;28;894;-41
2023/09/26 00:21:01;;;;;;;5.03;3.10;;;;;;;17.11;65.91;93874.72;526416;28;860;-41
2023/09/26 00:21:16;;;;;;;8.33;3.27;;;;;;;17.12;66.13;93867.09;526455;28;959;-41
2023/09/26 00:21:32;;;;;;;7.82;3.22;;;;;;;17.11;65.82;93874.72;526372;28;884;-41
2023/09/26 00:21:47;;;;;;;5.57;3.07;;;;;;;17.12;66.05;93872.69;526446;28;840;-41
2023/09/26 00:22:02;;;;;;;4.60;2.90;;;;;;;17.12;66.07;93873.44;526407;28;854;-41
2023/09/26 00:22:18;;;;;;;3.80;3.20;;;;;;;17.11;66.14;93871.19;526487;28;801;-41
2023/09/26 00:22:33;;;;;;;7.40;3.40;;;;;;;17.11;66.09;93874.72;526423;28;876;-41
2023/09/26 00:22:48;;;;;;;8.27;3.10;;;;;;;17.12;66.06;93878.28;526439;28;915;-41
2023/09/26 00:23:07;;;;;;;5.38;3.20;;;;;;;17.11;65.99;93876.78;526507;28;860;-40
2023/09/26 00:23:22;;;;;;;3.97;3.20;;;;;;;17.10;66.12;93878.84;526355;28;993;-41
2023/09/26 00:23:38;;;;;;;3.20;2.70;;;;;;;17.10;66.05;93872.53;526492;28;789;-41
2023/09/26 00:23:53;;;;;;;3.50;2.80;;;;;;;17.10;65.83;93880.91;526470;28;790;-41
2023/09/26 00:24:09;;;;;;;3.37;2.90;;;;;;;17.10;65.86;93873.28;526362;28;904;-41
2023/09/26 00:24:25;;;;;;;3.20;2.90;;;;;;;17.07;65.97;93874.44;526490;28;865;-41
2023/09/26 00:24:40;;;;;;;3.45;3.00;;;;;;;17.08;65.94;93873.13;526363;28;892;-41
2023/09/26 00:24:55;;;;;;;3.20;2.90;;;;;;;17.05;65.92;93873.53;526443;28;895;-41
2023/09/26 00:25:11;;;;;;;2.90;2.60;;;;;;;17.03;66.07;93868.53;526402;28;794;-41
2023/09/26 00:25:27;;;;;;;3.00;2.50;;;;;;;17.03;65.91;93873.38;526450;28;872;-41
2023/09/26 00:25:44;;;;;;;4.68;2.78;;;;;;;17.02;66.02;93875.44;526329;28;1565;-41
2023/09/26 00:26:00;;;;;;;4.95;3.00;;;;;;;17.03;66.02;93878.97;527018;28;1013;-41
2023/09/26 00:26:15;;;;;;;4.00;3.05;;;;;;;17.03;65.86;93874.13;528282;28;1172;-41
2023/09/26 00:26:30;;;;;;;3.30;2.80;;;;;;;17.01;65.93;93868.38;528495;28;1107;-41
2023/09/26 00:26:47;;;;;;;4.07;2.90;;;;;;;17.02;65.76;93869.13;526580;28;1339;-41
2023/09/26 00:27:02;;;;;;;6.27;3.57;;;;;;;17.01;65.79;93868.38;526347;28;887;-41
2023/09/26 00:27:18;;;;;;;6.32;3.33;;;;;;;17.01;65.91;93864.84;528092;28;1212;-41
2023/09/26 00:27:33;;;;;;;6.13;3.07;;;;;;;17.00;65.76;93866.19;528551;28;856;-41
2023/09/26 00:27:49;;;;;;;7.57;3.20;;;;;;;16.86;65.88;93845.56;528557;28;860;-41
2023/09/26 00:28:04;;;;;;;6.10;3.10;;;;;;;16.97;65.68;93858.97;528347;28;1219;-42
2023/09/26 00:28:20;;;;;;;4.53;2.97;;;;;;;16.97;65.81;93864.56;528566;28;898;-40
2023/09/26 00:28:36;;;;;;;4.32;2.92;;;;;;;16.95;65.66;93856.78;528534;28;880;-41
2023/09/26 00:28:52;;;;;;;4.23;3.03;;;;;;;16.94;65.77;93863.66;528471;28;992;-41
2023/09/26 00:29:07;;;;;;;3.70;2.85;;;;;;;16.90;65.85;93848.66;528467;28;1965;-40
2023/09/26 00:29:22;;;;;;;4.80;2.92;;;;;;;16.93;65.95;93864.25;528368;28;782;-41
2023/09/26 00:29:40;;;;;;;5.00;3.33;;;;;;;16.92;65.88;93863.50;528338;28;924;-41
2023/09/26 00:29:55;;;;;;;3.88;3.05;;;;;;;16.91;66.07;93861.31;528421;28;853;-41
2023/09/26 00:30:12;;;;;;;4.85;2.85;;;;;;;16.90;66.07;93866.13;528350;28;857;-41
2023/09/26 00:30:27;;;;;;;4.88;2.92;;;;;;;16.90;66.06;93865.41;528195;28;2587;-41
2023/09/26 00:30:42;;;;;;;3.53;2.90;;;;;;;16.89;66.41;93863.94;528313;28;996;-41
2023/09/26 00:31:03;;;;;;;3.63;3.08;;;;;;;16.88;66.41;93856.88;528419;28;765;-41
2023/09/26 00:31:18;;;;;;;5.75;3.15;;;;;;;16.87;66.26;93861.72;528481;28;892;-41
2023/09/26 00:31:34;;;;;;;5.68;3.03;;;;;;;16.87;66.21;93861.00;528539;28;841;-41
2023/09/26 00:31:51;;;;;;;4.57;3.17;;;;;;;16.87;66.33;93863.78;528485;27;793;-41
2023/09/26 00:32:06;;;;;;;5.90;3.05;;;;;;;16.87;66.18;93863.78;528468;28;955;-41
2023/09/26 00:32:23;;;;;;;6.57;3.00;;;;;;;16.86;66.33;93865.09;528551;28;777;-41
2023/09/26 00:32:38;;;;;;;4.50;3.05;;;;;;;16.86;66.27;93870.66;528492;28;902;-41
2023/09/26 00:32:54;;;;;;;4.80;3.20;;;;;;;16.86;66.35;93863.03;528545;28;833;-41
2023/09/26 00:33:10;;;;;;;5.18;3.28;;;;;;;16.85;66.39;93861.56;528474;28;923;-41
2023/09/26 00:33:25;;;;;;;4.25;2.88;;;;;;;16.84;66.30;93865.66;528528;28;943;-41
2023/09/26 00:33:40;;;;;;;4.87;2.60;;;;;;;16.84;66.42;93862.13;528453;28;943;-41
2023/09/26 00:33:56;;;;;;;4.23;2.63;;;;;;;16.83;66.15;93861.41;528563;27;847;-41
2023/09/26 00:34:12;;;;;;;3.33;2.78;;;;;;;16.82;66.15;93862.72;528482;28;809;-41
2023/09/26 00:34:28;;;;;;;3.47;2.70;;;;;;;16.83;66.23;93857.91;528612;27;828;-41
2023/09/26 00:34:43;;;;;;;3.75;2.50;;;;;;;16.82;66.21;93862.00;528503;28;836;-41
2023/09/26 00:34:59;;;;;;;3.60;2.77;;;;;;;16.82;65.99;93856.41;528563;28;845;-41
2023/09/26 00:35:15;;;;;;;4.35;2.90;;;;;;;16.81;65.82;93864.03;528540;28;824;-41
2023/09/26 00:35:30;;;;;;;4.05;2.85;;;;;;;16.82;65.65;93859.19;528444;27;983;-41
2023/09/26 00:35:46;;;;;;;3.70;3.00;;;;;;;16.81;65.64;93863.28;528538;28;931;-41
2023/09/26 00:36:10;;;;;;;4.53;2.73;;;;;;;16.80;65.47;93864.63;528496;28;875;-41
2023/09/26 00:36:25;;;;;;;5.32;2.67;;;;;;;16.79;65.19;93863.13;528500;28;832;-41
2023/09/26 00:36:41;;;;;;;4.17;2.80;;;;;;;16.78;65.22;93864.47;528473;28;1047;-41
2023/09/26 00:36:56;;;;;;;3.47;2.80;;;;;;;16.75;64.98;93866.34;528560;28;832;-41
2023/09/26 00:37:12;;;;;;;3.30;2.80;;;;;;;16.76;64.88;93867.09;528489;28;805;-41
2023/09/26 00:37:27;;;;;;;4.00;2.83;;;;;;;16.75;65.21;93865.63;528561;28;860;-41
2023/09/26 00:37:48;;;;;;;4.18;3.00;;;;;;;16.74;64.97;93866.94;528506;28;777;-41
2023/09/26 00:38:03;;;;;;;3.58;2.85;;;;;;;16.73;65.09;93868.25;528513;28;860;-40
2023/09/26 00:38:19;;;;;;;6.57;3.00;;;;;;;16.71;65.29;93862.50;528455;28;839;-41
2023/09/26 00:38:34;;;;;;;21.43;4.83;;;;;;;16.70;65.30;93864.56;528538;28;793;-41
2023/09/26 00:38:50;;;;;;;24.50;5.03;;;;;;;16.68;65.33;93862.38;528436;27;903;-41
2023/09/26 00:39:05;;;;;;;8.77;3.47;;;;;;;16.67;65.31;93860.16;528495;28;888;-41
2023/09/26 00:39:21;;;;;;;4.30;3.00;;;;;;;16.66;65.35;93855.88;528506;28;1106;-40
2023/09/26 00:39:37;;;;;;;3.97;2.65;;;;;;;16.64;65.42;93862.03;528537;28;1013;-40
2023/09/26 00:39:53;;;;;;;3.72;2.72;;;;;;;16.51;65.50;93842.91;528503;28;847;-40
2023/09/26 00:40:18;;;;;;;3.78;2.92;;;;;;;16.63;65.44;93854.28;528504;28;922;-41
2023/09/26 00:40:34;;;;;;;4.00;2.90;;;;;;;16.61;65.69;93852.03;528440;28;916;-40
2023/09/26 00:40:49;;;;;;;3.60;2.78;;;;;;;16.46;65.69;93841.06;528486;28;840;-41
2023/09/26 00:41:08;;;;;;;3.43;2.83;;;;;;;16.56;66.01;93861.44;528492;28;934;-41
2023/09/26 00:41:24;;;;;;;3.13;2.83;;;;;;;16.54;66.14;93855.69;528517;28;878;-41
2023/09/26 00:41:39;;;;;;;2.97;2.67;;;;;;;16.53;66.32;93856.25;528523;28;864;-41
2023/09/26 00:41:54;;;;;;;3.43;2.77;;;;;;;16.51;66.42;93856.09;528579;28;773;-40
2023/09/26 00:42:10;;;;;;;3.33;2.63;;;;;;;16.51;66.46;93862.41;528272;28;1008;-41
2023/09/26 00:42:26;;;;;;;5.50;3.08;;;;;;;16.33;66.43;93837.94;528530;28;908;-41
2023/09/26 00:42:43;;;;;;;6.20;3.35;;;;;;;16.48;66.46;93860.03;528421;28;907;-41
2023/09/26 00:42:59;;;;;;;4.13;3.13;;;;;;;16.47;66.58;93864.84;528556;28;871;-41
2023/09/26 00:43:24;;;;;;;4.13;3.20;;;;;;;16.47;66.58;93855.75;528522;28;927;-40
2023/09/26 00:43:39;;;;;;;6.80;3.00;;;;;;;16.46;66.75;93851.47;528469;28;1128;-41
2023/09/26 00:43:54;;;;;;;5.53;2.83;;;;;;;16.46;66.80;93857.81;528467;28;936;-41
2023/09/26 00:44:11;;;;;;;3.77;2.87;;;;;;;16.45;66.68;93861.91;528512;28;821;-41
2023/09/26 00:44:27;;;;;;;3.80;2.90;;;;;;;16.44;66.84;93854.09;528513;28;891;-41
2023/09/26 00:44:42;;;;;;;4.20;3.17;;;;;;;16.43;66.84;93856.19;528499;28;785;-41
2023/09/26 00:44:58;;;;;;;4.47;3.53;;;;;;;16.44;66.85;93854.09;528533;28;983;-41
2023/09/26 00:45:13;;;;;;;5.03;3.43;;;;;;;16.44;66.76;93851.31;528440;28;892;-41
2023/09/26 00:45:29;;;;;;;4.50;3.03;;;;;;;16.44;66.96;93859.69;528503;28;812;-41
2023/09/26 00:45:44;;;;;;;4.50;3.17;;;;;;;16.44;66.88;93856.91;528542;28;852;-41
2023/09/26 00:46:00;;;;;;;5.15;3.03;;;;;;;16.43;66.79;93847.06;528462;28;849;-41
2023/09/26 00:46:16;;;;;;;4.07;2.70;;;;;;;16.42;66.71;93854.69;528572;28;816;-41
2023/09/26 00:46:32;;;;;;;3.60;2.95;;;;;;;16.43;66.88;93855.44;528348;28;863;-41
2023/09/26 00:46:48;;;;;;;3.55;3.15;;;;;;;16.41;66.86;93858.81;526235;28;843;-41
2023/09/26 00:47:03;;;;;;;3.80;3.30;;;;;;;16.41;66.79;93856.03;526210;28;931;-41
2023/09/26 00:47:19;;;;;;;4.97;3.13;;;;;;;16.41;66.90;93856.03;526184;28;766;-41
2023/09/26 00:47:35;;;;;;;4.85;2.80;;;;;;;16.42;66.70;93859.53;526221;28;864;-41
2023/09/26 00:47:50;;;;;;;4.28;3.03;;;;;;;16.40;66.73;93857.31;524079;28;857;-40
2023/09/26 00:48:06;;;;;;;5.15;3.20;;;;;;;16.40;66.89;93857.31;522105;28;1659;-41
2023/09/26 00:48:23;;;;;;;5.40;3.20;;;;;;;16.39;66.96;93855.88;522540;28;868;-41
2023/09/26 00:48:39;;;;;;;5.53;2.95;;;;;;;16.40;66.82;93857.31;524895;28;797;-40
2023/09/26 00:48:55;;;;;;;5.90;2.93;;;;;;;16.39;67.07;93855.13;526202;28;801;-41
2023/09/26 00:49:11;;;;;;;5.55;3.03;;;;;;;16.34;66.95;93848.50;526011;28;1969;-41
2023/09/26 00:49:29;;;;;;;5.50;3.07;;;;;;;16.39;67.28;93857.91;524171;28;870;-41
2023/09/26 00:49:45;;;;;;;4.50;3.30;;;;;;;16.38;67.38;93859.97;524146;28;853;-41
2023/09/26 00:50:05;;;;;;;7.60;3.60;;;;;;;16.38;67.24;93857.16;525251;28;873;-41
2023/09/26 00:50:22;;;;;;;8.52;3.35;;;;;;;16.37;67.32;93861.25;526207;28;1003;-41
2023/09/26 00:50:37;;;;;;;6.80;2.90;;;;;;;16.36;67.30;93857.00;526140;28;1255;-41
2023/09/26 00:50:53;;;;;;;5.17;2.90;;;;;;;16.37;67.44;93861.25;523813;28;853;-40
2023/09/26 00:51:09;;;;;;;3.92;2.80;;;;;;;16.38;67.42;93857.16;524128;28;885;-41
2023/09/26 00:51:24;;;;;;;5.17;3.00;;;;;;;16.38;67.46;93853.63;525885;28;814;-41
2023/09/26 00:51:40;;;;;;;4.40;2.97;;;;;;;16.37;67.44;93858.47;526159;28;891;-41
2023/09/26 00:51:56;;;;;;;4.55;3.10;;;;;;;16.37;67.46;93855.69;526257;28;825;-41
2023/09/26 00:52:11;;;;;;;4.82;3.17;;;;;;;16.37;67.54;93854.97;526220;28;802;-41
2023/09/26 00:52:28;;;;;;;5.30;3.00;;;;;;;16.37;67.47;93855.69;526161;28;979;-41
2023/09/26 00:52:49;;;;;;;4.57;2.80;;;;;;;16.37;67.36;93855.69;526270;28;817;-41
2023/09/26 00:53:04;;;;;;;3.85;2.80;;;;;;;16.36;67.35;93851.44;525989;28;833;-41
2023/09/26 00:53:21;;;;;;;3.97;2.90;;;;;;;16.09;67.37;93813.72;526223;28;810;-41
2023/09/26 00:53:38;;;;;;;6.65;3.20;;;;;;;16.34;67.38;93851.28;526401;28;923;-41
2023/09/26 00:53:54;;;;;;;6.57;3.20;;;;;;;16.33;67.51;93855.38;526398;28;829;-41
2023/09/26 00:54:10;;;;;;;5.63;3.22;;;;;;;16.31;67.55;93852.44;526284;28;931;-41
2023/09/26 00:54:26;;;;;;;6.97;3.33;;;;;;;16.31;67.77;93860.03;526379;28;1558;-41
2023/09/26 00:54:41;;;;;;;4.70;2.97;;;;;;;16.30;67.48;93848.19;526153;28;1837;-41
2023/09/26 00:54:58;;;;;;;3.77;2.80;;;;;;;16.30;67.75;93844.66;526260;28;844;-41
2023/09/26 00:55:16;;;;;;;5.20;3.15;;;;;;;16.30;67.74;93845.41;524081;28;1748;-41
2023/09/26 00:55:32;;;;;;;4.35;3.05;;;;;;;16.31;67.67;93851.69;524073;28;789;-41
2023/09/26 00:55:49;;;;;;;3.35;3.05;;;;;;;16.31;67.91;93848.91;524120;28;916;-41
2023/09/26 00:56:05;;;;;;;4.65;3.40;;;;;;;16.32;67.78;93850.38;524170;28;904;-41
2023/09/26 00:56:20;;;;;;;4.53;3.20;;;;;;;16.31;67.82;93846.09;522022;28;822;-41
2023/09/26 00:56:38;;;;;;;3.20;2.72;;;;;;;16.32;67.76;93847.59;523245;28;853;-41
2023/09/26 00:56:54;;;;;;;4.40;2.97;;;;;;;16.32;67.68;93845.56;522016;28;941;-41
2023/09/26 00:57:10;;;;;;;4.82;2.80;;;;;;;16.33;67.80;93852.59;523433;28;857;-41
2023/09/26 00:57:25;;;;;;;3.83;2.80;;;;;;;16.34;67.90;93847.75;524087;28;915;-41
2023/09/26 00:57:41;;;;;;;3.75;3.15;;;;;;;16.33;67.81;93844.22;524102;28;766;-41
2023/09/26 00:57:56;;;;;;;3.50;3.20;;;;;;;16.34;67.87;93840.13;524138;28;805;-41
2023/09/26 00:58:13;;;;;;;3.80;3.00;;;;;;;16.35;68.17;93840.88;524942;28;872;-41
2023/09/26 00:58:31;;;;;;;5.28;3.00;;;;;;;16.34;67.78;93842.91;526183;28;924;-41
2023/09/26 00:58:46;;;;;;;3.55;2.80;;;;;;;16.34;67.77;93839.41;526278;28;908;-41
2023/09/26 00:59:02;;;;;;;3.67;2.80;;;;;;;16.36;67.65;93842.34;526335;28;1214;-41
2023/09/26 00:59:17;;;;;;;3.88;3.03;;;;;;;16.34;67.58;93837.34;526401;28;881;-40
2023/09/26 00:59:33;;;;;;;3.30;3.00;;;;;;;16.34;67.41;93840.13;526346;28;837;-41
2023/09/26 00:59:49;;;;;;;3.22;2.92;;;;;;;16.34;67.27;93840.13;526432;28;927;-41
2023/09/26 01:00:06;;;;;;;3.60;2.70;;;;;;;16.34;67.17;93839.41;526367;28;1007;-41
2023/09/26 01:00:21;;;;;;;3.70;2.70;;;;;;;16.34;66.73;93834.56;526317;28;881;-41
2023/09/26 01:00:38;;;;;;;3.83;2.90;;;;;;;16.33;66.54;93841.44;526217;28;861;-41
2023/09/26 01:00:53;;;;;;;4.32;2.80;;;;;;;16.33;66.39;93838.66;526165;28;916;-41
2023/09/26 01:01:09;;;;;;;4.67;3.00;;;;;;;16.33;66.19;93837.94;526165;28;813;-41
2023/09/26 01:01:27;;;;;;;4.18;2.97;;;;;;;16.33;65.97;93837.94;526227;28;820;-41
2023/09/26 01:01:45;;;;;;;3.50;2.65;;;;;;;16.31;66.13;93835.72;523976;28;1400;-43
2023/09/26 01:02:00;;;;;;;4.53;2.90;;;;;;;16.27;66.02;93827.03;524038;28;945;-43
2023/09/26 01:02:15;;;;;;;4.90;2.90;;;;;;;16.30;65.73;93839.81;524112;28;865;-42
2023/09/26 01:02:31;;;;;;;4.27;2.73;;;;;;;16.30;65.88;93839.06;525218;28;888;-42
2023/09/26 01:02:46;;;;;;;3.60;2.78;;;;;;;16.28;66.01;93839.66;526130;28;936;-42
2023/09/26 01:03:02;;;;;;;3.20;2.60;;;;;;;16.28;65.80;93845.22;526186;28;769;-42
2023/09/26 01:03:17;;;;;;;3.50;2.73;;;;;;;16.25;66.03;93835.22;526281;28;873;-42
2023/09/26 01:03:33;;;;;;;3.42;2.80;;;;;;;16.25;66.04;93842.84;526199;28;857;-42
2023/09/26 01:03:49;;;;;;;3.65;2.80;;;;;;;16.24;66.00;93839.31;526350;28;1024;-42
2023/09/26 01:04:04;;;;;;;4.23;2.70;;;;;;;16.23;65.95;93834.34;526332;28;912;-42
2023/09/26 01:04:22;;;;;;;6.47;2.72;;;;;;;16.22;66.12;93841.94;526341;28;876;-42
2023/09/26 01:04:38;;;;;;;6.43;2.80;;;;;;;16.20;66.13;93839.00;526360;28;868;-42
2023/09/26 01:04:53;;;;;;;2.83;2.57;;;;;;;16.20;66.12;93835.50;526404;28;785;-42
2023/09/26 01:05:09;;;;;;;3.55;2.78;;;;;;;16.18;66.07;93844.41;526324;28;821;-42
2023/09/26 01:05:24;;;;;;;3.43;2.83;;;;;;;16.17;66.15;93842.97;526350;28;774;-42
2023/09/26 01:05:39;;;;;;;3.08;2.50;;;;;;;16.12;66.28;93835.59;526371;28;836;-42
2023/09/26 01:05:55;;;;;;;3.43;2.70;;;;;;;16.17;66.24;93847.78;526348;28;884;-42
2023/09/26 01:06:10;;;;;;;4.87;3.20;;;;;;;15.97;66.20;93818.31;526337;28;805;-42
2023/09/26 01:06:26;;;;;;;5.75;3.22;;;;;;;16.16;66.20;93852.63;526325;28;859;-42
2023/09/26 01:06:41;;;;;;;4.93;2.87;;;;;;;16.14;66.24;93849.66;526312;28;904;-42
2023/09/26 01:06:56;;;;;;;4.50;2.90;;;;;;;16.14;66.04;93846.88;526398;28;877;-42
2023/09/26 01:07:12;;;;;;;4.97;3.10;;;;;;;16.14;66.10;93849.66;526336;28;869;-42
2023/09/26 01:07:28;;;;;;;4.50;3.00;;;;;;;16.13;66.16;93844.69;526212;28;914;-42
2023/09/26 01:07:43;;;;;;;4.37;2.90;;;;;;;16.12;66.01;93843.94;526336;28;789;-42
2023/09/26 01:07:59;;;;;;;5.15;2.97;;;;;;;16.10;66.17;93841.00;526271;28;963;-42
2023/09/26 01:08:14;;;;;;;4.77;3.10;;;;;;;16.11;66.01;93836.91;526195;28;826;-42
2023/09/26 01:08:30;;;;;;;4.88;2.95;;;;;;;16.08;66.31;93838.06;526146;28;789;-42
2023/09/26 01:08:46;;;;;;;6.72;2.95;;;;;;;16.09;66.20;93844.38;524109;28;857;-42
2023/09/26 01:09:03;;;;;;;6.13;2.80;;;;;;;15.98;66.42;93826.13;521810;28;1910;-42
2023/09/26 01:09:18;;;;;;;4.25;2.72;;;;;;;16.08;66.55;93838.06;521991;28;952;-42
2023/09/26 01:09:34;;;;;;;3.00;2.67;;;;;;;16.04;66.42;93832.16;522039;28;865;-42
2023/09/26 01:09:49;;;;;;;2.83;2.60;;;;;;;16.07;66.39;93844.91;519944;28;904;-42
2023/09/26 01:10:08;;;;;;;3.70;2.90;;;;;;;16.06;66.44;93840.69;518569;28;865;-42
2023/09/26 01:10:23;;;;;;;3.78;2.67;;;;;;;16.06;66.38;93843.47;519908;28;929;-42
2023/09/26 01:10:39;;;;;;;3.53;2.58;;;;;;;16.04;66.67;93837.72;520985;28;831;-42
2023/09/26 01:10:56;;;;;;;4.22;2.65;;;;;;;16.03;66.57;93843.84;523108;28;859;-42
2023/09/26 01:11:13;;;;;;;4.57;2.80;;;;;;;16.02;66.77;93845.94;524014;28;971;-42
2023/09/26 01:11:29;;;;;;;4.03;2.92;;;;;;;16.00;66.76;93842.97;523974;28;940;-42
2023/09/26 01:11:44;;;;;;;3.87;3.07;;;;;;;15.86;66.79;93820.31;523202;28;924;-42
2023/09/26 01:12:00;;;;;;;3.65;2.95;;;;;;;15.97;66.88;93838.56;525317;28;867;-42
2023/09/26 01:12:16;;;;;;;3.13;2.83;;;;;;;15.95;67.04;93838.41;526202;28;883;-42
2023/09/26 01:12:31;;;;;;;3.27;2.87;;;;;;;15.94;67.16;93842.47;525980;28;982;-42
2023/09/26 01:12:46;;;;;;;3.97;3.08;;;;;;;15.93;67.09;93838.22;526162;28;851;-42
2023/09/26 01:13:02;;;;;;;4.40;3.20;;;;;;;15.91;67.28;93838.81;526112;28;900;-42
2023/09/26 01:13:19;;;;;;;5.28;3.25;;;;;;;15.90;67.30;93840.13;526149;28;1320;-42
2023/09/26 01:13:34;;;;;;;5.22;3.30;;;;;;;15.90;67.52;93836.59;526180;28;884;-42
2023/09/26 01:13:49;;;;;;;4.43;3.20;;;;;;;15.90;67.61;93844.94;526312;28;887;-42
2023/09/26 01:14:05;;;;;;;4.33;2.80;;;;;;;15.79;67.59;93823.91;526342;28;915;-42
2023/09/26 01:14:20;;;;;;;4.10;2.63;;;;;;;15.89;67.73;93847.00;526297;28;802;-42
2023/09/26 01:14:35;;;;;;;4.07;3.10;;;;;;;15.90;67.56;93839.38;526378;28;793;-42
2023/09/26 01:14:51;;;;;;;5.17;3.23;;;;;;;15.88;67.45;93839.94;526275;28;999;-42
2023/09/26 01:15:08;;;;;;;5.57;3.07;;;;;;;15.89;67.56;93843.47;526326;28;993;-42
2023/09/26 01:15:37;;;;;;;4.22;3.03;;;;;;;15.88;67.51;93839.94;526317;28;880;-42
2023/09/26 01:15:52;;;;;;;3.63;2.95;;;;;;;15.87;67.47;93838.47;526272;28;833;-42
2023/09/26 01:16:18;;;;;;;4.30;2.80;;;;;;;15.86;67.72;93836.25;526360;28;785;-42
2023/09/26 01:16:33;;;;;;;4.18;3.08;;;;;;;15.84;67.64;93836.84;526187;28;1079;-42
2023/09/26 01:16:55;;;;;;;5.97;3.00;;;;;;;15.83;67.72;93834.66;526149;28;876;-42
2023/09/26 01:17:10;;;;;;;4.40;2.85;;;;;;;15.82;67.98;93838.72;526044;28;960;-42
2023/09/26 01:17:29;;;;;;;3.90;3.10;;;;;;;15.81;68.13;93835.19;526208;28;789;-42
2023/09/26 01:17:45;;;;;;;5.40;2.92;;;;;;;15.82;68.28;93835.94;526070;28;982;-42
2023/09/26 01:18:00;;;;;;;5.97;2.97;;;;;;;15.82;68.33;93835.94;526127;28;863;-42
2023/09/26 01:18:16;;;;;;;3.97;2.83;;;;;;;15.82;68.22;93836.69;526155;28;817;-42
2023/09/26 01:18:32;;;;;;;4.78;2.90;;;;;;;15.83;68.23;93834.66;526101;28;979;-42
2023/09/26 01:18:47;;;;;;;4.30;3.03;;;;;;;15.82;68.28;93839.47;526250;28;931;-42